Agios Georgios I — SX9857 — position and weather

sailwx.info

Track history (hours):
 
Tides and Currents Weather Stations Pressure Air Temp Water Temp Dewpoint Dewpoint Depression Visibility Wind Speed Wind Dir Waves Ship Positions

Agios Georgios I

Last reported at 2015-May-23 19:19 UTC. Time now 2015-May-24 03:16 UTC.
Position N 37°37' E 024°05'.

Length 59 m; draft 5 m.

Type: Ship (hazmat cat B). MMSI: 239912000.

Date/timePositionNaut miles runAvg speedWind from/ knotsBaromVisibWave heightAir tempDewpointWater temp
2015-May-23 19:19N 37°37' E 024°05'7 8.6
2015-May-23 18:31N 37°38' E 023°56'8 8.2
2015-May-23 17:34N 37°39' E 023°46'8 8.0
2015-May-23 16:33N 37°45' E 023°40'8 8.5
2015-May-23 15:34N 37°53' E 023°36'5 4.5
2015-May-23 14:33N 37°57' E 023°35'0 0.0
2015-May-23 13:33N 37°57' E 023°35'0 0.0
2015-May-23 12:33N 37°57' E 023°35'0 0.0
2015-May-23 11:33N 37°57' E 023°35'0 0.0
2015-May-23 10:33N 37°57' E 023°35'0 0.0
2015-May-23 09:33N 37°57' E 023°35'0 0.0
2015-May-23 08:33N 37°57' E 023°35'0 0.0
2015-May-23 07:33N 37°57' E 023°35'0 0.0
2015-May-23 06:33N 37°57' E 023°35'0 0.0
2015-May-23 05:33N 37°57' E 023°35'0 0.0
2015-May-23 04:33N 37°57' E 023°35'0 0.0
2015-May-23 03:33N 37°57' E 023°35'2 2.2
2015-May-23 02:33N 37°55' E 023°34'6 6.1
2015-May-23 01:33N 37°50' E 023°30'6 6.3
2015-May-23 00:33N 37°51' E 023°23'7 6.7
2015-May-22 23:32N 37°53' E 023°14'7 6.9
2015-May-22 22:29N 37°55' E 023°06'0 0.0
2015-May-22 08:14N 37°55' E 023°06'4 5.7
2015-May-22 07:30N 37°54' E 023°11'8 8.9
2015-May-22 06:33N 37°52' E 023°21'9 8.7
2015-May-22 05:33N 37°50' E 023°32'6 6.4
2015-May-22 04:33N 37°49' E 023°40'9 8.6
2015-May-22 03:33N 37°41' E 023°45'9 8.8
2015-May-22 02:30N 37°35' E 023°54'52 8.6
2015-May-21 20:26N 37°10' E 024°51'8 9.1
2015-May-21 19:33N 37°08' E 025°01'7 0.7
2015-May-21 09:22N 37°05' E 025°09'0 0.2
2015-May-21 08:32N 37°06' E 025°09'0 0.0
2015-May-21 07:33N 37°06' E 025°09'0 0.0
2015-May-21 03:33N 37°06' E 025°08'0 0.0
2015-May-21 02:33N 37°06' E 025°08'0 0.0
2015-May-21 01:33N 37°06' E 025°08'0 0.0
2015-May-21 00:33N 37°06' E 025°08'0 0.4
2015-May-20 23:32N 37°05' E 025°08'6 6.6
2015-May-20 22:33N 37°10' E 025°13'8 7.9
2015-May-20 21:33N 37°06' E 025°22'1 0.6
2015-May-20 20:33N 37°06' E 025°22'1 0.6
2015-May-20 19:33N 37°06' E 025°22'0 0.0
2015-May-20 18:33N 37°06' E 025°22'1 1.5
2015-May-20 17:33N 37°07' E 025°21'9 9.3
2015-May-20 16:33N 37°16' E 025°16'9 9.2
2015-May-20 15:33N 37°24' E 025°11'8 8.3
2015-May-20 14:34N 37°32' E 025°09'0 0.0
2015-May-20 13:33N 37°32' E 025°09'1 1.5
2015-May-20 12:33N 37°31' E 025°08'9 8.9
2015-May-20 11:33N 37°27' E 024°58'2 1.8
2015-May-20 10:33N 37°26' E 024°56'0 0.0
2015-May-20 09:33N 37°26' E 024°56'0 0.0
2015-May-20 08:33N 37°26' E 024°56'0 0.0
2015-May-20 07:33N 37°26' E 024°56'0 0.0
2015-May-20 06:33N 37°26' E 024°56'1 0.7
2015-May-20 05:33N 37°26' E 024°57'1 0.9
2015-May-20 04:33N 37°25' E 024°58'0 0.0
2015-May-20 03:33N 37°25' E 024°58'0 0.0
2015-May-20 02:33N 37°25' E 024°58'0 0.0
2015-May-20 01:33N 37°25' E 024°58'0 0.0
2015-May-20 00:33N 37°25' E 024°58'0 0.0
2015-May-19 23:33N 37°25' E 024°58'0 0.0
2015-May-19 22:33N 37°25' E 024°58'2 1.8
2015-May-19 21:33N 37°27' E 024°58'8 8.4
2015-May-19 20:33N 37°35' E 024°54'  
2015-May-15 07:30N 36°40' E 025°01'4 4.5
2015-May-15 06:31N 36°37' E 024°57'0 0.0
2015-May-15 05:33N 36°37' E 024°57'0 0.0
2015-May-15 04:33N 36°37' E 024°57'10 7.8
2015-May-15 03:18N 36°45' E 025°04'20 7.5
2015-May-15 00:33N 37°02' E 025°17'5 5.3
2015-May-14 23:34N 37°06' E 025°22'0 0.0
2015-May-14 22:33N 37°06' E 025°22'0 0.0
2015-May-14 21:33N 37°06' E 025°22'0 0.0
2015-May-14 20:33N 37°06' E 025°22'0 0.0
2015-May-14 19:33N 37°06' E 025°22'0 0.4
2015-May-14 18:33N 37°06' E 025°22'0 0.0
2015-May-14 17:33N 37°06' E 025°22'0 0.0
2015-May-14 16:33N 37°06' E 025°22'1 0.6
2015-May-14 15:33N 37°06' E 025°22'1 0.5
2015-May-14 14:33N 37°06' E 025°22'0 0.0
2015-May-14 13:33N 37°06' E 025°22'1 0.9
2015-May-14 12:33N 37°06' E 025°21'1 1.3
2015-May-14 11:33N 37°07' E 025°21'7 6.5
2015-May-14 10:33N 37°13' E 025°18'7 7.2
2015-May-14 09:33N 37°20' E 025°14'7 7.0
2015-May-14 08:33N 37°26' E 025°11'6 6.1
2015-May-14 07:33N 37°32' E 025°09'0 0.0
2015-May-14 06:33N 37°32' E 025°09'0 0.0
2015-May-14 05:33N 37°32' E 025°09'0 0.0
2015-May-14 04:33N 37°32' E 025°09'4 4.1
2015-May-14 03:33N 37°30' E 025°05'8 7.8
2015-May-14 02:33N 37°26' E 024°56'0 0.2
2015-May-14 01:33N 37°26' E 024°56'0 0.0
2015-May-14 00:30N 37°26' E 024°56'0 0.0
2015-May-13 23:33N 37°26' E 024°56'0 0.0
2015-May-13 22:33N 37°26' E 024°56'0 0.0
2015-May-13 21:33N 37°26' E 024°56'0 0.0
2015-May-13 20:33N 37°26' E 024°56'0 0.0
2015-May-13 19:33N 37°26' E 024°56'  
Track history (hours):
 
Tides and Currents Weather Stations Pressure Air Temp Water Temp Dewpoint Dewpoint Depression Visibility Wind Speed Wind Dir Waves Ship Positions

Agios Georgios I

Last reported at 2015-May-23 19:19 UTC. Time now 2015-May-24 03:16 UTC.
Position N 37°37' E 024°05'.

Length 59 m; draft 5 m.

Type: Ship (hazmat cat B). MMSI: 239912000.

Date/timePositionNaut miles runAvg speedWind from/ knotsBaromVisibWave heightAir tempDewpointWater temp
2015-May-23 19:19N 37°37' E 024°05'7 8.6
2015-May-23 18:31N 37°38' E 023°56'8 8.2
2015-May-23 17:34N 37°39' E 023°46'8 8.0
2015-May-23 16:33N 37°45' E 023°40'8 8.5
2015-May-23 15:34N 37°53' E 023°36'5 4.5
2015-May-23 14:33N 37°57' E 023°35'0 0.0
2015-May-23 13:33N 37°57' E 023°35'0 0.0
2015-May-23 12:33N 37°57' E 023°35'0 0.0
2015-May-23 11:33N 37°57' E 023°35'0 0.0
2015-May-23 10:33N 37°57' E 023°35'0 0.0
2015-May-23 09:33N 37°57' E 023°35'0 0.0
2015-May-23 08:33N 37°57' E 023°35'0 0.0
2015-May-23 07:33N 37°57' E 023°35'0 0.0
2015-May-23 06:33N 37°57' E 023°35'0 0.0
2015-May-23 05:33N 37°57' E 023°35'0 0.0
2015-May-23 04:33N 37°57' E 023°35'0 0.0
2015-May-23 03:33N 37°57' E 023°35'2 2.2
2015-May-23 02:33N 37°55' E 023°34'6 6.1
2015-May-23 01:33N 37°50' E 023°30'6 6.3
2015-May-23 00:33N 37°51' E 023°23'7 6.7
2015-May-22 23:32N 37°53' E 023°14'7 6.9
2015-May-22 22:29N 37°55' E 023°06'0 0.0
2015-May-22 08:14N 37°55' E 023°06'4 5.7
2015-May-22 07:30N 37°54' E 023°11'8 8.9
2015-May-22 06:33N 37°52' E 023°21'9 8.7
2015-May-22 05:33N 37°50' E 023°32'6 6.4
2015-May-22 04:33N 37°49' E 023°40'9 8.6
2015-May-22 03:33N 37°41' E 023°45'9 8.8
2015-May-22 02:30N 37°35' E 023°54'52 8.6
2015-May-21 20:26N 37°10' E 024°51'8 9.1
2015-May-21 19:33N 37°08' E 025°01'7 0.7
2015-May-21 09:22N 37°05' E 025°09'0 0.2
2015-May-21 08:32N 37°06' E 025°09'0 0.0
2015-May-21 07:33N 37°06' E 025°09'0 0.0
2015-May-21 03:33N 37°06' E 025°08'0 0.0
2015-May-21 02:33N 37°06' E 025°08'0 0.0
2015-May-21 01:33N 37°06' E 025°08'0 0.0
2015-May-21 00:33N 37°06' E 025°08'0 0.4
2015-May-20 23:32N 37°05' E 025°08'6 6.6
2015-May-20 22:33N 37°10' E 025°13'8 7.9
2015-May-20 21:33N 37°06' E 025°22'1 0.6
2015-May-20 20:33N 37°06' E 025°22'1 0.6
2015-May-20 19:33N 37°06' E 025°22'0 0.0
2015-May-20 18:33N 37°06' E 025°22'1 1.5
2015-May-20 17:33N 37°07' E 025°21'9 9.3
2015-May-20 16:33N 37°16' E 025°16'9 9.2
2015-May-20 15:33N 37°24' E 025°11'8 8.3
2015-May-20 14:34N 37°32' E 025°09'0 0.0
2015-May-20 13:33N 37°32' E 025°09'1 1.5
2015-May-20 12:33N 37°31' E 025°08'9 8.9
2015-May-20 11:33N 37°27' E 024°58'2 1.8
2015-May-20 10:33N 37°26' E 024°56'0 0.0
2015-May-20 09:33N 37°26' E 024°56'0 0.0
2015-May-20 08:33N 37°26' E 024°56'0 0.0
2015-May-20 07:33N 37°26' E 024°56'0 0.0
2015-May-20 06:33N 37°26' E 024°56'1 0.7
2015-May-20 05:33N 37°26' E 024°57'1 0.9
2015-May-20 04:33N 37°25' E 024°58'0 0.0
2015-May-20 03:33N 37°25' E 024°58'0 0.0
2015-May-20 02:33N 37°25' E 024°58'0 0.0
2015-May-20 01:33N 37°25' E 024°58'0 0.0
2015-May-20 00:33N 37°25' E 024°58'0 0.0
2015-May-19 23:33N 37°25' E 024°58'0 0.0
2015-May-19 22:33N 37°25' E 024°58'2 1.8
2015-May-19 21:33N 37°27' E 024°58'8 8.4
2015-May-19 20:33N 37°35' E 024°54'  
2015-May-15 07:30N 36°40' E 025°01'4 4.5
2015-May-15 06:31N 36°37' E 024°57'0 0.0
2015-May-15 05:33N 36°37' E 024°57'0 0.0
2015-May-15 04:33N 36°37' E 024°57'10 7.8
2015-May-15 03:18N 36°45' E 025°04'20 7.5
2015-May-15 00:33N 37°02' E 025°17'5 5.3
2015-May-14 23:34N 37°06' E 025°22'0 0.0
2015-May-14 22:33N 37°06' E 025°22'0 0.0
2015-May-14 21:33N 37°06' E 025°22'0 0.0
2015-May-14 20:33N 37°06' E 025°22'0 0.0
2015-May-14 19:33N 37°06' E 025°22'0 0.4
2015-May-14 18:33N 37°06' E 025°22'0 0.0
2015-May-14 17:33N 37°06' E 025°22'0 0.0
2015-May-14 16:33N 37°06' E 025°22'1 0.6
2015-May-14 15:33N 37°06' E 025°22'1 0.5
2015-May-14 14:33N 37°06' E 025°22'0 0.0
2015-May-14 13:33N 37°06' E 025°22'1 0.9
2015-May-14 12:33N 37°06' E 025°21'1 1.3
2015-May-14 11:33N 37°07' E 025°21'7 6.5
2015-May-14 10:33N 37°13' E 025°18'7 7.2
2015-May-14 09:33N 37°20' E 025°14'7 7.0
2015-May-14 08:33N 37°26' E 025°11'6 6.1
2015-May-14 07:33N 37°32' E 025°09'0 0.0
2015-May-14 06:33N 37°32' E 025°09'0 0.0
2015-May-14 05:33N 37°32' E 025°09'0 0.0
2015-May-14 04:33N 37°32' E 025°09'4 4.1
2015-May-14 03:33N 37°30' E 025°05'8 7.8
2015-May-14 02:33N 37°26' E 024°56'0 0.2
2015-May-14 01:33N 37°26' E 024°56'0 0.0
2015-May-14 00:30N 37°26' E 024°56'0 0.0
2015-May-13 23:33N 37°26' E 024°56'0 0.0
2015-May-13 22:33N 37°26' E 024°56'0 0.0
2015-May-13 21:33N 37°26' E 024°56'0 0.0
2015-May-13 20:33N 37°26' E 024°56'0 0.0
2015-May-13 19:33N 37°26' E 024°56'  

Dump ship's entire track history